CheckWX is a tool to help pilots better visualize weather data.  It is not intended as a substitute for an official pre-flight weather briefing.

15:02:50 UTC

UMII TAF
Vitebsk East Airport
Vitebsk, Belarus
TAF UMII 231405Z 2315/2324 23003MPS 9999 SCT020 TEMPO 2316/2324 2000 BR SCT005

Mar-23@
15:00 UTC

Mar-23 @ 15:00 UTC

Mar-24@
00:00 UTC

Mar-24 @ 00:00 UTC

TAF UMII 231405Z 2315/2324 23003MPS 9999 SCT020
Wind
  • 230° at 6 KTS
Cloud Levels
  • Scattered at 2,000' AGL

Mar-23@
16:00 UTC

Mar-23 @ 16:00 UTC

Mar-24@
00:00 UTC

Mar-24 @ 00:00 UTC

TEMPO 2316/2324 2000 BR SCT005

Temporary

Temporary Changes expected for less than half the time period

Conditions
Mist
Cloud Levels
  • Scattered at 500' AGL